Lehmann Sound — V2EM3 — position and weather

sailwx.info

Track history (hours):
 
Tides and Currents Weather Stations Pressure Air Temp Water Temp Dewpoint Dewpoint Depression Visibility Wind Speed Wind Dir Waves Ship Positions

Lehmann Sound

Last reported at 2014-Oct-30 23:10 UTC. Time now 2014-Oct-31 07:01 UTC.
Position N 55°27' E 014°53'.

Length 90 m; draft 5.8 m.

Type: Cargo ship. MMSI: 305476000.

Date/timePositionNaut miles runAvg speedWind from/ knotsBaromVisibWave heightAir tempDewpointWater temp
2014-Oct-30 23:10N 55°27' E 014°53'17 9.7
2014-Oct-30 21:28N 55°17' E 014°31'910.1
2014-Oct-30 20:33N 55°10' E 014°20'3110.1
2014-Oct-30 17:33N 55°12' E 013°27'10 9.9
2014-Oct-30 16:33N 55°13' E 013°10'10 9.6
2014-Oct-30 15:33N 55°15' E 012°53'10 9.5
2014-Oct-30 14:33N 55°19' E 012°38'9 9.0
2014-Oct-30 13:33N 55°27' E 012°41'9 9.1
2014-Oct-30 12:33N 55°36' E 012°42'9 9.2
2014-Oct-30 11:33N 55°46' E 012°41'10 9.6
2014-Oct-30 10:33N 55°55' E 012°37'9 9.4
2014-Oct-30 09:33N 56°04' E 012°36'1010.3
2014-Oct-30 08:33N 56°11' E 012°22'1010.1
2014-Oct-30 07:33N 56°16' E 012°07'9 9.3
2014-Oct-30 06:33N 56°25' E 012°00'9 9.4
2014-Oct-30 05:33N 56°34' E 011°57'9 9.3
2014-Oct-30 04:32N 56°43' E 011°53'9 9.1
2014-Oct-30 03:33N 56°52' E 011°48'9 9.3
2014-Oct-30 02:33N 57°00' E 011°42'9 9.1
2014-Oct-30 01:33N 57°09' E 011°36'9 9.3
2014-Oct-30 00:33N 57°18' E 011°30'10 9.8
2014-Oct-29 23:33N 57°27' E 011°24'10 9.7
2014-Oct-29 22:33N 57°34' E 011°11'10 9.9
2014-Oct-29 21:33N 57°41' E 010°58'10 9.9
2014-Oct-29 20:33N 57°47' E 010°44'1010.1
2014-Oct-29 19:33N 57°47' E 010°25'3210.4
2014-Oct-29 16:28N 57°45' E 009°25'1010.8
2014-Oct-29 15:32N 57°44' E 009°06'1110.9
2014-Oct-29 14:32N 57°43' E 008°46'1210.7
2014-Oct-29 13:26N 57°42' E 008°24'79 8.9
2014-Oct-29 04:32N 58°00' E 005°59'9 9.1
2014-Oct-29 03:33N 58°06' E 005°46'9 8.9
2014-Oct-29 02:33N 58°11' E 005°33'  
2014-Oct-24 12:33N 66°16' E 012°22'11 9.3
2014-Oct-24 11:22N 66°11' E 012°47'  
Track history (hours):
 
Tides and Currents Weather Stations Pressure Air Temp Water Temp Dewpoint Dewpoint Depression Visibility Wind Speed Wind Dir Waves Ship Positions

Lehmann Sound

Last reported at 2014-Oct-30 23:10 UTC. Time now 2014-Oct-31 07:01 UTC.
Position N 55°27' E 014°53'.

Length 90 m; draft 5.8 m.

Type: Cargo ship. MMSI: 305476000.

Date/timePositionNaut miles runAvg speedWind from/ knotsBaromVisibWave heightAir tempDewpointWater temp
2014-Oct-30 23:10N 55°27' E 014°53'17 9.7
2014-Oct-30 21:28N 55°17' E 014°31'910.1
2014-Oct-30 20:33N 55°10' E 014°20'3110.1
2014-Oct-30 17:33N 55°12' E 013°27'10 9.9
2014-Oct-30 16:33N 55°13' E 013°10'10 9.6
2014-Oct-30 15:33N 55°15' E 012°53'10 9.5
2014-Oct-30 14:33N 55°19' E 012°38'9 9.0
2014-Oct-30 13:33N 55°27' E 012°41'9 9.1
2014-Oct-30 12:33N 55°36' E 012°42'9 9.2
2014-Oct-30 11:33N 55°46' E 012°41'10 9.6
2014-Oct-30 10:33N 55°55' E 012°37'9 9.4
2014-Oct-30 09:33N 56°04' E 012°36'1010.3
2014-Oct-30 08:33N 56°11' E 012°22'1010.1
2014-Oct-30 07:33N 56°16' E 012°07'9 9.3
2014-Oct-30 06:33N 56°25' E 012°00'9 9.4
2014-Oct-30 05:33N 56°34' E 011°57'9 9.3
2014-Oct-30 04:32N 56°43' E 011°53'9 9.1
2014-Oct-30 03:33N 56°52' E 011°48'9 9.3
2014-Oct-30 02:33N 57°00' E 011°42'9 9.1
2014-Oct-30 01:33N 57°09' E 011°36'9 9.3
2014-Oct-30 00:33N 57°18' E 011°30'10 9.8
2014-Oct-29 23:33N 57°27' E 011°24'10 9.7
2014-Oct-29 22:33N 57°34' E 011°11'10 9.9
2014-Oct-29 21:33N 57°41' E 010°58'10 9.9
2014-Oct-29 20:33N 57°47' E 010°44'1010.1
2014-Oct-29 19:33N 57°47' E 010°25'3210.4
2014-Oct-29 16:28N 57°45' E 009°25'1010.8
2014-Oct-29 15:32N 57°44' E 009°06'1110.9
2014-Oct-29 14:32N 57°43' E 008°46'1210.7
2014-Oct-29 13:26N 57°42' E 008°24'79 8.9
2014-Oct-29 04:32N 58°00' E 005°59'9 9.1
2014-Oct-29 03:33N 58°06' E 005°46'9 8.9
2014-Oct-29 02:33N 58°11' E 005°33'  
2014-Oct-24 12:33N 66°16' E 012°22'11 9.3
2014-Oct-24 11:22N 66°11' E 012°47'  

Dump ship's entire track history